< < Back
Terminal Aerodrome Forecast


Current Version              Previous Versions:   1  2  3  4  5  6  7  8  9  

Terminal Aerodrome Forecast

324
FTUS42 KCAE 212300
TAFCAE
TAF
KCAE 212323Z 2200/2224 VRB03KT P6SM FEW250
     FM221600 30005KT P6SM SCT250=



Latest METAR

693
SAUS80 KWBC 220900 RRA
MTRCAE
METAR KCAE 220856Z 00000KT 10SM CLR 24/21 A3000 RMK AO2 SLP156 T02390206
58015


USA.gov is the U.S. government's official web portal to all federal, state and local government web resources and services.